Terminal Aerodrome Forecast
Issued by NWS Tampa Bay Area, FL

Home | Current Version | Previous Version | Text Only | Print | Product List | Glossary Off
Versions: 1 2 3 4 5 6 7 8 9 10 11 12 13 14 15 16 17 18 19 20 21 22 23 24 25 26

000
FTUS42 KTBW 270522
TAFSRQ
TAF
KSRQ 270522Z 2706/2806 20005KT P6SM VCSH SCT015 SCT025 BKN035
      TEMPO 2706/2710 3SM SHRA BKN015
     FM271000 20006KT 6SM SHRA VCTS SCT015 BKN025CB
     FM271700 25013KT P6SM VCTS SCT025CB OVC050
     FM272300 24009KT P6SM VCSH SCT030 BKN080=

USA.gov is the U.S. government's official web portal to all federal, state and local government web resources and services.